createdAt,value
2017-09-29T00:02:17.662Z,15.60
2017-09-29T00:04:45.968Z,15.60
2017-09-29T00:07:14.285Z,15.60
2017-09-29T00:09:42.610Z,15.60
2017-09-29T00:12:11.985Z,15.30
2017-09-29T00:14:40.323Z,15.30
2017-09-29T00:17:09.489Z,15.30
2017-09-29T00:19:37.805Z,15.30
2017-09-29T00:22:06.131Z,15.30
2017-09-29T00:24:35.198Z,15.30
2017-09-29T00:27:03.525Z,15.30
2017-09-29T00:29:31.864Z,15.40
2017-09-29T00:32:00.161Z,15.40
2017-09-29T00:34:29.253Z,15.50
2017-09-29T00:36:58.351Z,15.50
2017-09-29T00:39:26.816Z,15.50
2017-09-29T00:41:55.153Z,15.50
2017-09-29T00:44:23.476Z,15.50
2017-09-29T00:46:51.794Z,15.50
2017-09-29T00:49:20.126Z,15.60
2017-09-29T00:51:48.429Z,15.50
2017-09-29T00:54:17.500Z,15.50
2017-09-29T00:56:45.831Z,15.50
2017-09-29T00:59:14.137Z,15.50
2017-09-29T01:01:42.438Z,15.50
2017-09-29T01:04:10.760Z,15.50
2017-09-29T01:06:39.077Z,15.50
2017-09-29T01:09:07.417Z,15.40
2017-09-29T01:11:35.721Z,15.30
2017-09-29T01:14:04.042Z,15.30
2017-09-29T01:16:32.366Z,15.30
2017-09-29T01:19:00.699Z,15.30
2017-09-29T01:21:29.038Z,15.30
2017-09-29T01:23:57.357Z,15.40
2017-09-29T01:26:26.422Z,15.20
2017-09-29T01:28:55.580Z,15.20
2017-09-29T01:31:23.876Z,15.20
2017-09-29T01:33:52.190Z,15.20
2017-09-29T01:36:21.290Z,15.20
2017-09-29T01:38:49.590Z,15.20
2017-09-29T01:41:17.934Z,15.20
2017-09-29T01:43:46.237Z,15.20
2017-09-29T01:46:14.653Z,15.20
2017-09-29T01:48:43.029Z,15.30
2017-09-29T01:51:11.330Z,15.30
2017-09-29T01:53:40.523Z,15.30
2017-09-29T01:56:08.842Z,15.30
2017-09-29T01:58:37.190Z,15.30
2017-09-29T02:01:05.495Z,15.30
2017-09-29T02:03:33.789Z,15.30
2017-09-29T02:06:02.141Z,15.30
2017-09-29T02:08:30.468Z,15.30
2017-09-29T02:10:58.829Z,15.30
2017-09-29T02:13:27.141Z,15.20
2017-09-29T02:15:56.236Z,15.30
2017-09-29T02:18:24.571Z,15.30
2017-09-29T02:20:53.642Z,15.30
2017-09-29T02:23:21.977Z,15.30
2017-09-29T02:25:51.065Z,15.30
2017-09-29T02:28:19.374Z,15.30
2017-09-29T02:30:47.708Z,15.30
2017-09-29T02:33:16.013Z,15.30
2017-09-29T02:35:44.323Z,15.30
2017-09-29T02:38:12.654Z,15.30
2017-09-29T02:40:40.996Z,15.30
2017-09-29T02:43:10.102Z,15.10
2017-09-29T02:45:38.413Z,15.10
2017-09-29T02:48:06.763Z,15.10
2017-09-29T02:50:35.064Z,15.10
2017-09-29T02:53:03.384Z,15.20
2017-09-29T02:55:31.747Z,15.20
2017-09-29T02:58:04.427Z,15.20
2017-09-29T03:00:35.453Z,15.10
2017-09-29T03:03:05.227Z,15.10
2017-09-29T03:05:43.629Z,15.10
2017-09-29T03:08:11.948Z,15.10
2017-09-29T03:10:41.042Z,15.20
2017-09-29T03:13:09.394Z,15.20
2017-09-29T03:15:37.700Z,15.20
2017-09-29T03:18:06.000Z,15.20
2017-09-29T03:20:34.328Z,15.20
2017-09-29T03:23:03.425Z,15.10
2017-09-29T03:25:31.762Z,15.10
2017-09-29T03:28:00.064Z,15.10
2017-09-29T03:30:28.370Z,15.10
2017-09-29T03:32:56.723Z,15.20
2017-09-29T03:35:25.033Z,15.30
2017-09-29T03:37:53.376Z,15.30
2017-09-29T03:40:21.684Z,15.30
2017-09-29T03:42:50.687Z,15.30
2017-09-29T03:45:19.936Z,15.30
2017-09-29T03:47:48.279Z,15.30
2017-09-29T03:50:20.923Z,15.20
2017-09-29T03:52:52.898Z,15.20
2017-09-29T03:55:23.297Z,15.20
2017-09-29T03:57:53.900Z,15.20
2017-09-29T04:00:22.239Z,15.10
2017-09-29T04:02:50.941Z,15.10
2017-09-29T04:05:19.735Z,15.10
2017-09-29T04:07:48.823Z,15.10
2017-09-29T04:10:17.601Z,15.10
2017-09-29T04:12:47.153Z,15.10
2017-09-29T04:15:16.129Z,15.10
2017-09-29T04:17:44.473Z,15.10
2017-09-29T04:20:12.784Z,15.10
2017-09-29T04:22:41.883Z,15.00
2017-09-29T04:25:10.194Z,15.00
2017-09-29T04:27:38.698Z,15.00
2017-09-29T04:30:07.061Z,15.00
2017-09-29T04:32:35.377Z,14.90
2017-09-29T04:35:03.691Z,14.90
2017-09-29T04:37:32.037Z,14.90
2017-09-29T04:40:00.345Z,14.90
2017-09-29T04:42:28.710Z,14.90
2017-09-29T04:44:57.017Z,14.90
2017-09-29T04:47:25.564Z,14.90
2017-09-29T04:49:53.906Z,15.00
2017-09-29T04:52:23.189Z,15.00
2017-09-29T04:54:52.301Z,15.00
2017-09-29T04:57:20.621Z,15.00
2017-09-29T04:59:49.688Z,15.00
2017-09-29T05:02:18.129Z,15.00
2017-09-29T05:04:48.079Z,15.10
2017-09-29T05:07:16.429Z,15.10
2017-09-29T05:09:44.757Z,15.10
2017-09-29T05:12:13.105Z,15.10
2017-09-29T05:14:42.207Z,15.10
2017-09-29T05:17:10.577Z,15.10
2017-09-29T05:19:38.889Z,15.10
2017-09-29T05:22:07.201Z,15.10
2017-09-29T05:24:35.536Z,15.10
2017-09-29T05:27:03.942Z,15.10
2017-09-29T05:29:32.303Z,15.10
2017-09-29T05:32:00.622Z,15.10
2017-09-29T05:34:28.969Z,15.00
2017-09-29T05:36:57.506Z,15.00
2017-09-29T05:39:25.832Z,15.10
2017-09-29T05:41:55.069Z,15.00
2017-09-29T05:44:23.393Z,15.00
2017-09-29T05:46:51.695Z,15.10
2017-09-29T05:49:21.575Z,15.10
2017-09-29T05:51:49.970Z,15.10
2017-09-29T05:54:18.655Z,15.10
2017-09-29T05:56:47.856Z,15.10
2017-09-29T05:59:16.577Z,15.20
2017-09-29T06:01:45.823Z,15.20
2017-09-29T06:04:14.149Z,15.20
2017-09-29T06:06:42.481Z,15.20
2017-09-29T06:09:10.811Z,15.10
2017-09-29T06:11:39.153Z,15.00
2017-09-29T06:14:08.281Z,15.00
2017-09-29T06:16:36.581Z,14.90
2017-09-29T06:19:05.688Z,15.10
2017-09-29T06:21:34.029Z,15.10
2017-09-29T06:24:03.132Z,15.10
2017-09-29T06:26:31.465Z,15.10
2017-09-29T06:28:59.775Z,15.10
2017-09-29T06:31:28.109Z,15.10
2017-09-29T06:33:56.713Z,15.20
2017-09-29T06:36:25.900Z,15.20
2017-09-29T06:38:54.205Z,15.20
2017-09-29T06:41:23.280Z,15.30
2017-09-29T06:43:53.425Z,15.30
2017-09-29T06:46:22.514Z,15.20
2017-09-29T06:48:50.873Z,15.30
2017-09-29T06:51:19.200Z,15.30
2017-09-29T06:53:47.525Z,15.30
2017-09-29T06:56:15.860Z,15.30
2017-09-29T06:58:44.168Z,15.40
2017-09-29T07:01:12.525Z,15.40
2017-09-29T07:03:47.561Z,15.50
2017-09-29T07:06:15.853Z,15.60
2017-09-29T07:08:44.185Z,15.50
2017-09-29T07:11:12.503Z,15.50
2017-09-29T07:13:40.831Z,15.50
2017-09-29T07:16:09.916Z,15.50
2017-09-29T07:18:38.275Z,15.50
2017-09-29T07:21:06.599Z,15.50
2017-09-29T07:23:34.905Z,15.60
2017-09-29T07:26:05.997Z,15.80
2017-09-29T07:28:35.765Z,15.70
2017-09-29T07:31:05.646Z,15.80
2017-09-29T07:33:33.953Z,15.80
2017-09-29T07:36:02.255Z,15.80
2017-09-29T07:38:31.522Z,15.80
2017-09-29T07:40:59.902Z,15.90
2017-09-29T07:43:29.523Z,15.90
2017-09-29T07:45:57.833Z,15.90
2017-09-29T07:48:26.178Z,15.90
2017-09-29T07:50:54.495Z,16.00
2017-09-29T07:53:22.821Z,16.30
2017-09-29T07:55:51.892Z,16.70
2017-09-29T07:58:21.062Z,17.00
2017-09-29T08:00:50.145Z,17.20
2017-09-29T08:03:19.229Z,17.60
2017-09-29T08:05:47.581Z,17.50
2017-09-29T08:08:15.899Z,17.90
2017-09-29T08:10:44.241Z,17.90
2017-09-29T08:13:12.607Z,17.90
2017-09-29T08:15:40.900Z,18.10
2017-09-29T08:18:09.201Z,18.30
2017-09-29T08:20:37.537Z,18.50
2017-09-29T08:23:05.875Z,18.80
2017-09-29T08:25:34.183Z,19.00
2017-09-29T08:28:03.304Z,19.00
2017-09-29T08:30:31.612Z,19.00
2017-09-29T08:32:59.997Z,18.90
2017-09-29T08:35:28.332Z,19.00
2017-09-29T08:37:56.787Z,19.00
2017-09-29T08:40:25.095Z,19.00
2017-09-29T08:42:54.206Z,19.50
2017-09-29T08:45:22.553Z,19.50
2017-09-29T08:47:50.873Z,19.30
2017-09-29T08:50:19.520Z,18.90
2017-09-29T08:52:47.820Z,18.90
2017-09-29T08:55:16.148Z,19.10
2017-09-29T08:57:44.483Z,19.10
2017-09-29T09:00:22.076Z,19.30
2017-09-29T09:02:50.393Z,19.30
2017-09-29T09:05:18.721Z,19.40
2017-09-29T09:07:47.032Z,19.40
2017-09-29T09:10:15.361Z,19.30
2017-09-29T09:12:43.714Z,19.50
2017-09-29T09:15:12.780Z,20.00
2017-09-29T09:17:41.079Z,20.00
2017-09-29T09:20:10.182Z,21.00
2017-09-29T09:22:38.483Z,21.00
2017-09-29T09:25:07.557Z,21.70
2017-09-29T09:27:36.655Z,21.30
2017-09-29T09:30:05.742Z,21.50
2017-09-29T09:32:34.083Z,21.50
2017-09-29T09:35:03.165Z,21.50
2017-09-29T09:37:32.258Z,21.50
2017-09-29T09:40:00.578Z,21.50
2017-09-29T09:42:28.885Z,21.90
2017-09-29T09:44:57.219Z,21.90
2017-09-29T09:47:25.649Z,21.90
2017-09-29T09:49:54.717Z,22.10
2017-09-29T09:52:23.044Z,22.10
2017-09-29T09:54:51.371Z,22.30
2017-09-29T09:57:19.697Z,22.20
2017-09-29T09:59:48.760Z,22.10
2017-09-29T10:02:17.093Z,22.10
2017-09-29T10:04:45.458Z,22.40
2017-09-29T10:07:13.808Z,22.40
2017-09-29T10:09:42.135Z,22.10
2017-09-29T10:12:10.483Z,21.70
2017-09-29T10:14:39.566Z,21.40
2017-09-29T10:17:07.894Z,21.40
2017-09-29T10:19:36.961Z,21.50
2017-09-29T10:22:06.070Z,21.40
2017-09-29T10:24:34.401Z,21.30
2017-09-29T10:27:02.718Z,21.80
2017-09-29T10:29:31.823Z,22.90
2017-09-29T10:32:00.149Z,22.90
2017-09-29T10:34:29.241Z,23.60
2017-09-29T10:36:57.562Z,23.60
2017-09-29T10:39:25.932Z,23.40
2017-09-29T10:41:55.046Z,22.70
2017-09-29T10:44:23.405Z,22.70
2017-09-29T10:46:51.710Z,22.80
2017-09-29T10:49:21.009Z,23.20
2017-09-29T10:51:50.519Z,23.10
2017-09-29T10:54:18.853Z,23.10
2017-09-29T10:56:47.164Z,22.90
2017-09-29T10:59:16.226Z,22.40
2017-09-29T11:01:44.543Z,22.30
2017-09-29T11:04:12.843Z,22.40
2017-09-29T11:06:41.951Z,22.10
2017-09-29T11:09:10.246Z,22.00
2017-09-29T11:11:38.545Z,22.00
2017-09-29T11:14:06.890Z,21.90
2017-09-29T11:16:35.206Z,22.00
2017-09-29T11:19:03.496Z,22.10
2017-09-29T11:21:32.585Z,22.30
2017-09-29T11:24:00.893Z,22.20
2017-09-29T11:26:29.188Z,22.30
2017-09-29T11:28:58.303Z,23.10
2017-09-29T11:31:26.770Z,23.10
2017-09-29T11:33:55.160Z,23.60
2017-09-29T11:36:23.545Z,24.10
2017-09-29T11:38:52.408Z,24.70
2017-09-29T11:41:20.729Z,24.90
2017-09-29T11:43:49.035Z,25.30
2017-09-29T11:46:17.362Z,25.40
2017-09-29T11:48:46.539Z,25.30
2017-09-29T11:51:14.894Z,25.00
2017-09-29T11:53:43.190Z,24.80
2017-09-29T11:56:11.485Z,24.40
2017-09-29T11:58:39.822Z,24.00
2017-09-29T12:01:08.120Z,23.90
2017-09-29T12:03:36.418Z,23.70
2017-09-29T12:06:04.737Z,23.40
2017-09-29T12:08:33.054Z,23.20
2017-09-29T12:11:01.354Z,23.00
2017-09-29T12:13:30.454Z,22.50
2017-09-29T12:15:58.771Z,22.50
2017-09-29T12:18:27.286Z,22.60
2017-09-29T12:20:56.383Z,22.50
2017-09-29T12:23:24.681Z,22.50
2017-09-29T12:25:53.761Z,23.00
2017-09-29T12:28:22.142Z,22.90
2017-09-29T12:30:50.483Z,23.30
2017-09-29T12:33:18.777Z,23.30
2017-09-29T12:35:47.839Z,23.20
2017-09-29T12:38:16.925Z,23.00
2017-09-29T12:40:46.027Z,22.70
2017-09-29T12:43:14.329Z,22.70
2017-09-29T12:45:42.629Z,22.60
2017-09-29T12:48:11.739Z,22.50
2017-09-29T12:50:40.035Z,22.50
2017-09-29T12:53:08.330Z,22.50
2017-09-29T12:55:36.640Z,22.70
2017-09-29T12:58:04.970Z,23.00
2017-09-29T13:00:33.290Z,23.30
2017-09-29T13:03:01.605Z,23.30
2017-09-29T13:05:30.667Z,23.40
2017-09-29T13:07:59.749Z,23.40
2017-09-29T13:10:28.076Z,23.40
2017-09-29T13:12:58.077Z,23.40
2017-09-29T13:15:26.405Z,23.40
2017-09-29T13:17:54.707Z,23.40
2017-09-29T13:20:23.174Z,23.40
2017-09-29T13:22:52.269Z,23.40
2017-09-29T13:25:20.790Z,23.30
2017-09-29T13:27:49.844Z,23.50
2017-09-29T13:30:18.943Z,23.40
2017-09-29T13:32:47.244Z,23.40
2017-09-29T13:35:15.580Z,23.40
2017-09-29T13:37:44.682Z,23.20
2017-09-29T13:40:13.022Z,23.20
2017-09-29T13:42:41.316Z,23.10
2017-09-29T13:45:09.619Z,23.00
2017-09-29T13:47:37.949Z,22.80
2017-09-29T13:50:06.291Z,22.60
2017-09-29T13:52:34.580Z,22.50
2017-09-29T13:55:02.902Z,22.40
2017-09-29T13:57:31.292Z,22.50
2017-09-29T13:59:59.593Z,22.50
2017-09-29T14:02:28.247Z,22.20
2017-09-29T14:04:57.329Z,22.30
2017-09-29T14:07:26.390Z,22.50
2017-09-29T14:09:54.707Z,22.40
2017-09-29T14:12:23.069Z,22.50
2017-09-29T14:14:51.430Z,22.40
2017-09-29T14:17:19.741Z,22.50
2017-09-29T14:19:48.068Z,22.50
2017-09-29T14:22:16.360Z,22.30
2017-09-29T14:24:44.726Z,22.30
2017-09-29T14:27:13.033Z,22.50
2017-09-29T14:29:41.326Z,22.50
2017-09-29T14:32:09.657Z,22.50
2017-09-29T14:34:37.973Z,22.40
2017-09-29T14:37:06.274Z,22.50
2017-09-29T14:39:34.619Z,22.50
2017-09-29T14:42:02.946Z,22.50
2017-09-29T14:44:31.306Z,22.60
2017-09-29T14:46:59.622Z,22.60
2017-09-29T14:49:28.675Z,22.50
2017-09-29T14:51:57.097Z,22.50
2017-09-29T14:54:25.786Z,22.50
2017-09-29T14:56:54.082Z,22.50
2017-09-29T14:59:22.660Z,22.50
2017-09-29T15:01:50.961Z,22.50
2017-09-29T15:04:19.261Z,22.50
2017-09-29T15:06:47.584Z,22.50
2017-09-29T15:09:17.218Z,22.40
2017-09-29T15:11:46.104Z,22.40
2017-09-29T15:14:15.080Z,22.30
2017-09-29T15:16:43.396Z,22.30
2017-09-29T15:19:11.692Z,22.20
2017-09-29T15:21:40.029Z,22.20
2017-09-29T15:24:08.340Z,22.20
2017-09-29T15:26:36.644Z,22.10
2017-09-29T15:29:05.810Z,22.10
2017-09-29T15:31:34.881Z,22.00
2017-09-29T15:34:03.980Z,22.00
2017-09-29T15:36:32.274Z,22.00
2017-09-29T15:39:00.572Z,22.00
2017-09-29T15:41:30.672Z,21.90
2017-09-29T15:43:59.742Z,21.80
2017-09-29T15:46:28.873Z,21.80
2017-09-29T15:48:57.257Z,21.80
2017-09-29T15:51:26.317Z,21.70
2017-09-29T15:53:54.662Z,21.70
2017-09-29T15:56:22.969Z,21.70
2017-09-29T15:58:51.281Z,21.70
2017-09-29T16:01:19.653Z,21.70
2017-09-29T16:03:47.954Z,21.70
2017-09-29T16:06:16.599Z,21.60
2017-09-29T16:08:45.170Z,21.60
2017-09-29T16:11:13.474Z,21.60
2017-09-29T16:13:42.563Z,21.50
2017-09-29T16:16:11.756Z,21.50
2017-09-29T16:18:40.048Z,21.50
2017-09-29T16:21:08.349Z,21.50
2017-09-29T16:23:37.455Z,21.40
2017-09-29T16:26:05.836Z,21.40
2017-09-29T16:28:34.131Z,21.40
2017-09-29T16:31:03.292Z,21.20
2017-09-29T16:33:33.169Z,21.10
2017-09-29T16:36:02.078Z,21.10
2017-09-29T16:38:31.007Z,21.00
2017-09-29T16:40:59.308Z,21.00
2017-09-29T16:43:27.662Z,20.90
2017-09-29T16:45:56.014Z,20.90
2017-09-29T16:48:24.314Z,20.90
2017-09-29T16:50:52.639Z,20.70
2017-09-29T16:53:20.937Z,20.70
2017-09-29T16:55:49.996Z,20.60
2017-09-29T16:58:19.085Z,20.50
2017-09-29T17:00:47.406Z,20.40
2017-09-29T17:03:15.699Z,20.40
2017-09-29T17:05:44.055Z,20.40
2017-09-29T17:08:12.349Z,20.30
2017-09-29T17:10:40.644Z,20.20
2017-09-29T17:13:08.983Z,20.10
2017-09-29T17:15:38.068Z,20.00
2017-09-29T17:18:06.383Z,20.00
2017-09-29T17:20:34.734Z,20.00
2017-09-29T17:23:03.869Z,20.00
2017-09-29T17:25:32.186Z,20.00
2017-09-29T17:28:01.305Z,19.90
2017-09-29T17:30:29.606Z,19.90
2017-09-29T17:32:57.915Z,19.90
2017-09-29T17:35:26.257Z,19.80
2017-09-29T17:37:54.588Z,19.70
2017-09-29T17:40:22.884Z,19.70
2017-09-29T17:42:51.237Z,19.60
2017-09-29T17:45:20.309Z,19.50
2017-09-29T17:47:49.393Z,19.40
2017-09-29T17:50:17.735Z,19.40
2017-09-29T17:52:46.801Z,19.30
2017-09-29T17:55:15.090Z,19.30
2017-09-29T17:57:43.419Z,19.20
2017-09-29T18:00:11.720Z,19.10
2017-09-29T18:02:40.052Z,19.10
2017-09-29T18:05:08.431Z,19.10
2017-09-29T18:07:36.739Z,19.00
2017-09-29T18:10:05.038Z,18.90
2017-09-29T18:12:33.380Z,18.90
2017-09-29T18:15:02.341Z,18.90
2017-09-29T18:17:30.637Z,18.80
2017-09-29T18:19:59.866Z,18.80
2017-09-29T18:22:29.126Z,18.80
2017-09-29T18:24:58.223Z,18.80
2017-09-29T18:27:26.526Z,18.80
2017-09-29T18:29:54.823Z,18.80
2017-09-29T18:32:23.164Z,18.80
2017-09-29T18:34:51.486Z,18.80
2017-09-29T18:37:19.781Z,18.80
2017-09-29T18:39:50.010Z,18.80
2017-09-29T18:42:18.326Z,18.80
2017-09-29T18:44:47.437Z,18.80
2017-09-29T18:47:17.721Z,18.80
2017-09-29T18:49:46.806Z,18.70
2017-09-29T18:52:15.105Z,18.70
2017-09-29T18:54:43.440Z,18.70
2017-09-29T18:57:11.765Z,18.70
2017-09-29T18:59:40.069Z,18.70
2017-09-29T19:02:08.432Z,18.70
2017-09-29T19:04:36.732Z,18.60
2017-09-29T19:07:05.032Z,18.70
2017-09-29T19:09:34.146Z,18.60
2017-09-29T19:12:02.454Z,18.60
2017-09-29T19:14:30.769Z,18.60
2017-09-29T19:16:59.113Z,18.50
2017-09-29T19:19:27.458Z,18.50
2017-09-29T19:21:55.866Z,18.50
2017-09-29T19:24:24.197Z,18.50
2017-09-29T19:26:52.492Z,18.40
2017-09-29T19:29:20.921Z,18.50
2017-09-29T19:31:49.259Z,18.40
2017-09-29T19:34:17.566Z,18.30
2017-09-29T19:36:45.937Z,18.30
2017-09-29T19:39:14.293Z,18.30
2017-09-29T19:41:42.791Z,18.30
2017-09-29T19:44:11.128Z,18.20
2017-09-29T19:46:39.469Z,18.30
2017-09-29T19:49:07.794Z,18.30
2017-09-29T19:51:36.855Z,18.20
2017-09-29T19:54:05.196Z,18.20
2017-09-29T19:56:33.526Z,18.20
2017-09-29T19:59:01.833Z,18.20
2017-09-29T20:01:30.181Z,18.20
2017-09-29T20:03:59.267Z,18.20
2017-09-29T20:06:28.076Z,18.20
2017-09-29T20:08:56.430Z,18.20
2017-09-29T20:11:24.731Z,18.20
2017-09-29T20:13:53.043Z,18.20
2017-09-29T20:16:21.392Z,18.20
2017-09-29T20:18:49.689Z,18.20
2017-09-29T20:21:17.994Z,18.20
2017-09-29T20:23:46.343Z,18.20
2017-09-29T20:26:15.061Z,18.20
2017-09-29T20:28:43.381Z,18.20
2017-09-29T20:31:12.536Z,18.10
2017-09-29T20:33:40.845Z,18.10
2017-09-29T20:36:09.140Z,18.10
2017-09-29T20:38:37.495Z,18.10
2017-09-29T20:41:05.789Z,18.20
2017-09-29T20:43:34.135Z,18.20
2017-09-29T20:46:02.472Z,18.10
2017-09-29T20:48:30.962Z,18.10
2017-09-29T20:50:59.267Z,18.10
2017-09-29T20:53:28.366Z,18.00
2017-09-29T20:55:56.677Z,18.00
2017-09-29T20:58:25.761Z,17.90
2017-09-29T21:00:54.121Z,17.90
2017-09-29T21:03:22.453Z,17.90
2017-09-29T21:05:51.526Z,17.90
2017-09-29T21:08:20.623Z,17.80
2017-09-29T21:10:48.977Z,17.80
2017-09-29T21:13:17.273Z,17.80
2017-09-29T21:15:46.252Z,17.70
2017-09-29T21:18:14.562Z,17.70
2017-09-29T21:20:42.866Z,17.60
2017-09-29T21:23:11.969Z,17.60
2017-09-29T21:25:40.267Z,17.60
2017-09-29T21:28:08.564Z,17.60
2017-09-29T21:30:37.678Z,17.50
2017-09-29T21:33:05.986Z,17.50
2017-09-29T21:35:35.044Z,17.50
2017-09-29T21:38:03.377Z,17.40
2017-09-29T21:40:31.849Z,17.50
2017-09-29T21:43:00.145Z,17.50
2017-09-29T21:45:28.484Z,17.50
2017-09-29T21:47:57.549Z,17.40
2017-09-29T21:50:25.882Z,17.40
2017-09-29T21:52:54.217Z,17.40
2017-09-29T21:55:22.521Z,17.30
2017-09-29T21:57:50.818Z,17.30
2017-09-29T22:00:19.158Z,17.20
2017-09-29T22:02:47.453Z,17.10
2017-09-29T22:05:15.756Z,17.10
2017-09-29T22:07:44.106Z,17.10
2017-09-29T22:10:12.422Z,17.10
2017-09-29T22:12:40.732Z,17.10
2017-09-29T22:15:09.071Z,17.10
2017-09-29T22:17:37.374Z,17.10
2017-09-29T22:20:06.441Z,17.10
2017-09-29T22:22:35.558Z,17.10
2017-09-29T22:25:03.863Z,17.10
2017-09-29T22:27:32.942Z,17.10
2017-09-29T22:30:02.058Z,17.10
2017-09-29T22:32:30.573Z,17.10
2017-09-29T22:34:59.636Z,17.00
2017-09-29T22:37:28.733Z,16.90
2017-09-29T22:39:57.027Z,16.90
2017-09-29T22:42:25.322Z,16.90
2017-09-29T22:44:54.483Z,16.90
2017-09-29T22:47:23.554Z,16.90
2017-09-29T22:49:52.675Z,16.90
2017-09-29T22:52:20.984Z,16.90
2017-09-29T22:54:49.285Z,16.90
2017-09-29T22:57:17.632Z,17.00
2017-09-29T22:59:46.709Z,17.00
2017-09-29T23:02:15.019Z,17.00
2017-09-29T23:04:43.355Z,17.00
2017-09-29T23:07:11.821Z,17.00
2017-09-29T23:09:40.749Z,17.00
2017-09-29T23:12:09.180Z,17.00
2017-09-29T23:14:38.727Z,17.00
2017-09-29T23:17:07.821Z,17.00
2017-09-29T23:19:36.890Z,17.00
2017-09-29T23:22:06.043Z,17.00
2017-09-29T23:24:35.148Z,16.90
2017-09-29T23:27:03.452Z,16.90
2017-09-29T23:29:31.769Z,16.90
2017-09-29T23:32:00.192Z,16.80
2017-09-29T23:34:28.501Z,16.70
2017-09-29T23:36:56.797Z,16.70
2017-09-29T23:39:25.210Z,16.60
2017-09-29T23:41:53.508Z,16.60
2017-09-29T23:44:21.819Z,16.50
2017-09-29T23:46:50.160Z,16.50
2017-09-29T23:49:18.465Z,16.40
2017-09-29T23:51:46.774Z,16.40
2017-09-29T23:54:15.162Z,16.40
2017-09-29T23:56:43.466Z,16.30
2017-09-29T23:59:12.493Z,16.20
